Buffalo, SD

1:15 AM MDT on July 28, 2014 (GMT -0600)
Hettinger Municipal (KHEI) Elev 2703 ft | 46.01 °N, 102.66 °W | Change Station

Current weather conditions updated 22 minutes ago

Clear
Clear
47 °F
Feels Like 47 °F
N
4
Wind Variable Wind from South

Today is forecast to be Much Warmer than yesterday.

Today
High -- | Low -- °F
--% Chance of Precip.
Yesterday
High -- | Low -- °F
Precip. -- in
5:34 AM 8:27 PM
New Moon, 2% visible
Pressure 30.35 in
Visibility 7.0 miles
Clouds Clear
Dew Point 45 °F
Humidity 93%
Rainfall 0.00 in
Snow Depth Not available.
UV 0 out of 12
Pollen 7.30 out of 12
Air Quality Not available.
Flu Activity Not available.
METAR KHEI 280653Z AUTO 17003KT 7SM CLR 08/07 A3035 RMK AO2 SLP275 T00830072 402280083

More Conditions Fewer Conditions

Pressure 30.35 in
Visibility 7.0 miles
Clouds Clear
Dew Point 45 °F
Humidity 93%
Rainfall 0.00 in
Snow Depth Not available.
UV 0 out of 12
Pollen 7.30 out of 12
Air Quality Not available.
Flu Activity Not available.
METAR KHEI 280653Z AUTO 17003KT 7SM CLR 08/07 A3035 RMK AO2 SLP275 T00830072 402280083

More Conditions Fewer Conditions

10-Day Weather Forecast

Almanac

Astronomy

Jul. 28, 2014 Rise Set
Actual Time 5:34 AM MDT 8:27 PM MDT
Civil Twilight 4:59 AM MDT 9:02 PM MDT
Nautical Twilight 4:14 AM MDT 9:46 PM MDT
Astronomical Twilight 3:22 AM MDT 10:38 PM MDT
Moon 7:25 AM MDT 9:01 PM MDT
Length of Visible Light 16h 02m
Length of Day
14h 53m
Tomorrow will be 2m 20s shorter.
New Moon, 2% of the Moon is Illuminated
Today
New Moon
Aug 3
First Quarter
Aug 10
Full
Aug 17
Last Quarter
Aug 25
New

Today's Extremes

State Highs State Lows

Community

WunderPhotos

Upload Photos

1,738,292 photos uploaded!

Nearby

Snow Depth

Station Depth Elevation
North Rapid Creek 0 in 6130 ft
Blind Park 1 in 6890 ft

Earthquake Activity

City Distance Mag. Time & Date
No recent earthquake activity has been reported nearby.
Minimum magnitude displayed is 2.5.

Coastal Water Temperatures

Place Temperature
No Stations Reporting

Nearby Weather Stations

There are no personal weather stations in this area.